EmailTwitter


Observations de surface / Québec / CYSC

Régions: Québec | Canada | États-Unis | Europe | France | UK | Ailleurs
Station
Affichage
Infos & localisation pour CYSC | Aide pour décoder les METARs

Observations prises le 2017-10-19 à 10H00 UTC à SHERBROOKE, QB (CYSC)

Etat du ciel: dégagé.

Température: 6.0 Celsius

Point de rosée: 4.0 Celsius

Humidité relative: 87%

Vents: Est à 4 km/h ou 2 noeuds.

Pression au niveau moyen de la mer: 101.98 kilopascals.

Calage altimétrique: 101.90 kilopascals ou 30.09 pouces de mercure.

Visibilité horizontale: 9.00 milles terrestres ou 14.40 kilomètres.

Observation METAR:

CYSC 191000Z AUTO 08002KT 9SM CLR 06/04 A3009 RMK SLP198=